Аэропорт: Курумоч. Самара

ICAO: UWWW

METAR:
2022-06-26 11:30:00
UWWW 261130Z 36010MPS 9999 SCT033 23/04 Q1014 R33/CLRD60 NOSIG RMK QFE750/1000
METAR:
2022-06-26 10:52:00
TAF UWWW 261052Z 2612/2712 33008G13MPS 9999 SCT030 TX25/2612Z TN11/2701Z TEMPO 2612/2615 36011G16MPS BECMG 2615/2617 32003G08MPS TEMPO 2706/2712 28008G15MPS